createdAt,value
2022-08-17T00:13:41.964Z,19.1
2022-08-17T00:29:24.205Z,17.9
2022-08-17T00:45:06.252Z,18.79
2022-08-17T01:00:48.901Z,19.4
2022-08-17T01:16:30.965Z,18.2
2022-08-17T01:32:13.467Z,22.6
2022-08-17T01:47:55.619Z,23.2
2022-08-17T02:03:37.694Z,19.4
2022-08-17T02:19:20.550Z,19.5
2022-08-17T02:35:03.079Z,21.1
2022-08-17T02:50:45.688Z,22.1
2022-08-17T03:06:27.763Z,21.9
2022-08-17T03:22:09.943Z,22.8
2022-08-17T03:37:52.460Z,21.4
2022-08-17T03:38:39.755Z,20.6
2022-08-17T03:54:22.155Z,20
2022-08-17T04:10:05.152Z,23.3
2022-08-17T04:25:47.716Z,24.3
2022-08-17T04:41:30.489Z,22.7
2022-08-17T04:57:13.078Z,18.2
2022-08-17T05:12:55.805Z,17.79
2022-08-17T05:28:38.474Z,17.79
2022-08-17T05:44:21.170Z,18.6
2022-08-17T06:00:03.796Z,15.1
2022-08-17T06:15:45.755Z,12.7
2022-08-17T06:31:28.577Z,13.5
2022-08-17T06:47:11.052Z,10.8
2022-08-17T07:02:53.429Z,15
2022-08-17T07:18:35.947Z,14.3
2022-08-17T07:34:18.311Z,16
2022-08-17T07:50:00.934Z,11.5
2022-08-17T08:05:43.011Z,9.5
2022-08-17T08:21:25.332Z,7.3
2022-08-17T08:37:07.858Z,7
2022-08-17T08:52:50.220Z,4.69
2022-08-17T09:08:33.067Z,5.5
2022-08-17T09:24:15.412Z,7.1
2022-08-17T09:39:57.886Z,5.5
2022-08-17T09:55:39.929Z,5.5
2022-08-17T10:11:22.118Z,3.4
2022-08-17T10:27:04.160Z,4.4
2022-08-17T10:42:46.239Z,5.3
2022-08-17T10:58:28.887Z,3.3
2022-08-17T11:14:11.263Z,4.8
2022-08-17T11:29:53.310Z,4.3
2022-08-17T11:45:35.206Z,5.1
2022-08-17T12:01:18.028Z,4.19
2022-08-17T12:16:59.885Z,3.8
2022-08-17T12:32:41.969Z,4.9
2022-08-17T12:48:24.268Z,4.3
2022-08-17T13:04:06.846Z,4.4
2022-08-17T13:19:49.523Z,6.4
2022-08-17T13:35:32.029Z,4.3
2022-08-17T13:51:14.875Z,4.3
2022-08-17T14:06:57.382Z,4.3
2022-08-17T14:22:40.239Z,6.2
2022-08-17T14:38:22.127Z,5.5
2022-08-17T14:54:04.630Z,5.5
2022-08-17T15:09:46.902Z,5.1
2022-08-17T15:25:29.640Z,5.5
2022-08-17T15:41:12.291Z,5.1
2022-08-17T15:56:54.160Z,6.1
2022-08-17T16:12:36.437Z,7.4
2022-08-17T16:28:19.166Z,5
2022-08-17T16:44:01.099Z,7.6
2022-08-17T16:59:43.742Z,5.7
2022-08-17T17:15:25.762Z,6.1
2022-08-17T17:31:08.237Z,6
2022-08-17T17:46:50.893Z,6.5
2022-08-17T18:02:32.977Z,7.3
2022-08-17T18:18:15.266Z,8
2022-08-17T18:33:57.953Z,6.5
2022-08-17T18:49:40.169Z,7.2
2022-08-17T19:05:22.270Z,6.5
2022-08-17T19:21:05.176Z,8.6
2022-08-17T19:36:48.093Z,7.7
2022-08-17T19:52:30.665Z,8.3
2022-08-17T20:08:12.759Z,8.3
2022-08-17T20:23:55.536Z,8.89
2022-08-17T20:39:38.369Z,8.7
2022-08-17T20:55:20.454Z,7.6
2022-08-17T21:42:27.101Z,9
2022-08-17T22:13:52.273Z,9.3
2022-08-17T22:29:34.375Z,8.5
2022-08-17T22:45:16.377Z,9.5
2022-08-17T23:00:59.181Z,9.3
2022-08-17T23:16:41.769Z,8.89
2022-08-17T23:32:24.002Z,10.2
2022-08-17T23:48:06.797Z,9.8
